sensor_id;sensor_type;location;lat;lon;timestamp;P1;durP1;ratioP1;P2;durP2;ratioP2
77350;SDS011;66420;50.246;14.320;2023-03-04T00:01:05;30.17;;;11.40;;
77350;SDS011;66420;50.246;14.320;2023-03-04T00:03:49;32.35;;;12.70;;
77350;SDS011;66420;50.246;14.320;2023-03-04T00:06:34;34.58;;;13.15;;
77350;SDS011;66420;50.246;14.320;2023-03-04T00:09:19;36.28;;;11.73;;
77350;SDS011;66420;50.246;14.320;2023-03-04T00:12:07;30.63;;;12.05;;
77350;SDS011;66420;50.246;14.320;2023-03-04T00:14:51;28.25;;;10.15;;
77350;SDS011;66420;50.246;14.320;2023-03-04T00:17:36;29.38;;;11.07;;
77350;SDS011;66420;50.246;14.320;2023-03-04T00:20:20;25.55;;;9.65;;
77350;SDS011;66420;50.246;14.320;2023-03-04T00:23:04;30.45;;;11.02;;
77350;SDS011;66420;50.246;14.320;2023-03-04T00:25:49;27.00;;;9.95;;
77350;SDS011;66420;50.246;14.320;2023-03-04T00:28:34;21.27;;;9.10;;
77350;SDS011;66420;50.246;14.320;2023-03-04T00:31:18;24.85;;;9.60;;
77350;SDS011;66420;50.246;14.320;2023-03-04T00:34:03;43.13;;;12.60;;
77350;SDS011;66420;50.246;14.320;2023-03-04T00:36:47;32.33;;;11.23;;
77350;SDS011;66420;50.246;14.320;2023-03-04T00:39:32;30.35;;;11.52;;
77350;SDS011;66420;50.246;14.320;2023-03-04T00:42:16;29.00;;;11.05;;
77350;SDS011;66420;50.246;14.320;2023-03-04T00:45:00;30.85;;;11.15;;
77350;SDS011;66420;50.246;14.320;2023-03-04T00:47:46;31.33;;;12.55;;
77350;SDS011;66420;50.246;14.320;2023-03-04T00:50:30;40.15;;;15.13;;
77350;SDS011;66420;50.246;14.320;2023-03-04T00:53:15;41.00;;;15.25;;
77350;SDS011;66420;50.246;14.320;2023-03-04T00:56:00;33.80;;;12.50;;
77350;SDS011;66420;50.246;14.320;2023-03-04T00:58:44;35.42;;;12.45;;
77350;SDS011;66420;50.246;14.320;2023-03-04T01:01:29;24.98;;;11.55;;
77350;SDS011;66420;50.246;14.320;2023-03-04T01:04:13;25.83;;;10.18;;
77350;SDS011;66420;50.246;14.320;2023-03-04T01:06:58;24.70;;;10.40;;
77350;SDS011;66420;50.246;14.320;2023-03-04T01:09:42;24.83;;;9.73;;
77350;SDS011;66420;50.246;14.320;2023-03-04T01:12:27;24.48;;;8.98;;
77350;SDS011;66420;50.246;14.320;2023-03-04T01:15:12;24.48;;;10.40;;
77350;SDS011;66420;50.246;14.320;2023-03-04T01:17:57;23.45;;;8.82;;
77350;SDS011;66420;50.246;14.320;2023-03-04T01:20:42;23.05;;;8.73;;
77350;SDS011;66420;50.246;14.320;2023-03-04T01:23:26;25.45;;;10.05;;
77350;SDS011;66420;50.246;14.320;2023-03-04T01:26:10;28.00;;;10.80;;
77350;SDS011;66420;50.246;14.320;2023-03-04T01:28:55;25.00;;;10.32;;
77350;SDS011;66420;50.246;14.320;2023-03-04T01:31:39;29.55;;;11.05;;
77350;SDS011;66420;50.246;14.320;2023-03-04T01:34:24;24.92;;;10.25;;
77350;SDS011;66420;50.246;14.320;2023-03-04T01:37:08;25.92;;;9.63;;
77350;SDS011;66420;50.246;14.320;2023-03-04T01:39:53;32.33;;;9.93;;
77350;SDS011;66420;50.246;14.320;2023-03-04T01:42:38;27.27;;;10.35;;
77350;SDS011;66420;50.246;14.320;2023-03-04T01:45:23;29.15;;;11.23;;
77350;SDS011;66420;50.246;14.320;2023-03-04T01:48:08;30.15;;;10.80;;
77350;SDS011;66420;50.246;14.320;2023-03-04T01:50:55;23.88;;;9.85;;
77350;SDS011;66420;50.246;14.320;2023-03-04T01:53:40;24.77;;;10.35;;
77350;SDS011;66420;50.246;14.320;2023-03-04T01:56:33;30.83;;;10.02;;
77350;SDS011;66420;50.246;14.320;2023-03-04T01:59:24;26.23;;;9.70;;
77350;SDS011;66420;50.246;14.320;2023-03-04T02:02:10;27.73;;;10.15;;
77350;SDS011;66420;50.246;14.320;2023-03-04T02:04:55;29.50;;;9.35;;
77350;SDS011;66420;50.246;14.320;2023-03-04T02:07:41;22.17;;;8.60;;
77350;SDS011;66420;50.246;14.320;2023-03-04T02:10:26;27.92;;;9.15;;
77350;SDS011;66420;50.246;14.320;2023-03-04T02:13:11;34.63;;;11.70;;
77350;SDS011;66420;50.246;14.320;2023-03-04T02:15:57;24.20;;;9.05;;
77350;SDS011;66420;50.246;14.320;2023-03-04T02:18:42;25.73;;;10.30;;
77350;SDS011;66420;50.246;14.320;2023-03-04T02:21:31;29.55;;;10.63;;
77350;SDS011;66420;50.246;14.320;2023-03-04T02:24:40;35.00;;;12.80;;
77350;SDS011;66420;50.246;14.320;2023-03-04T02:27:25;30.60;;;12.10;;
77350;SDS011;66420;50.246;14.320;2023-03-04T02:30:10;35.10;;;12.35;;
77350;SDS011;66420;50.246;14.320;2023-03-04T02:33:03;30.60;;;12.10;;
77350;SDS011;66420;50.246;14.320;2023-03-04T02:35:49;31.98;;;11.27;;
77350;SDS011;66420;50.246;14.320;2023-03-04T02:38:33;32.53;;;12.38;;
77350;SDS011;66420;50.246;14.320;2023-03-04T02:41:19;34.45;;;11.98;;
77350;SDS011;66420;50.246;14.320;2023-03-04T02:44:14;30.80;;;10.52;;
77350;SDS011;66420;50.246;14.320;2023-03-04T02:47:03;32.92;;;11.43;;
77350;SDS011;66420;50.246;14.320;2023-03-04T02:49:49;23.88;;;9.75;;
77350;SDS011;66420;50.246;14.320;2023-03-04T02:52:34;35.30;;;11.98;;
77350;SDS011;66420;50.246;14.320;2023-03-04T02:55:19;29.50;;;12.13;;
77350;SDS011;66420;50.246;14.320;2023-03-04T02:58:03;28.60;;;11.95;;
77350;SDS011;66420;50.246;14.320;2023-03-04T03:00:48;33.63;;;12.60;;
77350;SDS011;66420;50.246;14.320;2023-03-04T03:03:32;31.38;;;12.75;;
77350;SDS011;66420;50.246;14.320;2023-03-04T03:09:01;38.20;;;12.30;;
77350;SDS011;66420;50.246;14.320;2023-03-04T03:11:46;31.33;;;12.13;;
77350;SDS011;66420;50.246;14.320;2023-03-04T03:14:31;36.20;;;12.70;;
77350;SDS011;66420;50.246;14.320;2023-03-04T03:17:15;35.72;;;12.52;;
77350;SDS011;66420;50.246;14.320;2023-03-04T03:20:00;38.72;;;12.63;;
77350;SDS011;66420;50.246;14.320;2023-03-04T03:22:45;27.60;;;11.18;;
77350;SDS011;66420;50.246;14.320;2023-03-04T03:25:30;36.28;;;15.10;;
77350;SDS011;66420;50.246;14.320;2023-03-04T03:30:59;27.45;;;10.88;;
77350;SDS011;66420;50.246;14.320;2023-03-04T03:33:43;35.97;;;13.10;;
77350;SDS011;66420;50.246;14.320;2023-03-04T03:36:27;35.15;;;12.65;;
77350;SDS011;66420;50.246;14.320;2023-03-04T03:41:58;30.20;;;11.55;;
77350;SDS011;66420;50.246;14.320;2023-03-04T03:44:42;31.70;;;12.65;;
77350;SDS011;66420;50.246;14.320;2023-03-04T03:47:27;31.15;;;11.43;;
77350;SDS011;66420;50.246;14.320;2023-03-04T03:50:12;31.40;;;11.50;;
77350;SDS011;66420;50.246;14.320;2023-03-04T03:52:57;37.65;;;12.25;;
77350;SDS011;66420;50.246;14.320;2023-03-04T03:55:42;39.38;;;13.48;;
77350;SDS011;66420;50.246;14.320;2023-03-04T03:58:26;39.20;;;13.90;;
77350;SDS011;66420;50.246;14.320;2023-03-04T04:01:11;40.03;;;13.75;;
77350;SDS011;66420;50.246;14.320;2023-03-04T04:03:55;35.05;;;13.07;;
77350;SDS011;66420;50.246;14.320;2023-03-04T04:06:39;39.70;;;14.05;;
77350;SDS011;66420;50.246;14.320;2023-03-04T04:09:24;35.30;;;14.00;;
77350;SDS011;66420;50.246;14.320;2023-03-04T04:12:10;40.83;;;15.25;;
77350;SDS011;66420;50.246;14.320;2023-03-04T04:14:57;39.05;;;17.13;;
77350;SDS011;66420;50.246;14.320;2023-03-04T04:17:42;46.92;;;15.95;;
77350;SDS011;66420;50.246;14.320;2023-03-04T04:20:27;40.90;;;15.13;;
77350;SDS011;66420;50.246;14.320;2023-03-04T04:23:12;38.47;;;14.57;;
77350;SDS011;66420;50.246;14.320;2023-03-04T04:25:56;47.88;;;17.23;;
77350;SDS011;66420;50.246;14.320;2023-03-04T04:28:42;38.90;;;15.15;;
77350;SDS011;66420;50.246;14.320;2023-03-04T04:31:26;47.90;;;16.80;;
77350;SDS011;66420;50.246;14.320;2023-03-04T04:34:11;49.67;;;18.50;;
77350;SDS011;66420;50.246;14.320;2023-03-04T04:36:55;77.40;;;29.50;;
77350;SDS011;66420;50.246;14.320;2023-03-04T04:39:40;51.30;;;18.02;;
77350;SDS011;66420;50.246;14.320;2023-03-04T04:42:26;58.92;;;18.33;;
77350;SDS011;66420;50.246;14.320;2023-03-04T04:45:11;47.90;;;18.00;;
77350;SDS011;66420;50.246;14.320;2023-03-04T04:47:55;44.80;;;16.60;;
77350;SDS011;66420;50.246;14.320;2023-03-04T04:50:40;41.00;;;15.88;;
77350;SDS011;66420;50.246;14.320;2023-03-04T04:53:25;40.88;;;14.32;;
77350;SDS011;66420;50.246;14.320;2023-03-04T04:56:14;49.65;;;18.20;;
77350;SDS011;66420;50.246;14.320;2023-03-04T04:59:01;50.38;;;20.75;;
77350;SDS011;66420;50.246;14.320;2023-03-04T05:01:47;54.75;;;19.25;;
77350;SDS011;66420;50.246;14.320;2023-03-04T05:04:32;36.97;;;12.52;;
77350;SDS011;66420;50.246;14.320;2023-03-04T05:07:16;29.70;;;10.73;;
77350;SDS011;66420;50.246;14.320;2023-03-04T05:10:01;32.15;;;10.90;;
77350;SDS011;66420;50.246;14.320;2023-03-04T05:12:47;33.80;;;10.82;;
77350;SDS011;66420;50.246;14.320;2023-03-04T05:15:32;51.55;;;17.80;;
77350;SDS011;66420;50.246;14.320;2023-03-04T05:18:17;57.95;;;17.95;;
77350;SDS011;66420;50.246;14.320;2023-03-04T05:21:03;53.83;;;18.50;;
77350;SDS011;66420;50.246;14.320;2023-03-04T05:23:48;59.92;;;18.98;;
77350;SDS011;66420;50.246;14.320;2023-03-04T05:26:33;116.65;;;31.48;;
77350;SDS011;66420;50.246;14.320;2023-03-04T05:29:18;122.70;;;32.78;;
77350;SDS011;66420;50.246;14.320;2023-03-04T05:32:03;109.97;;;30.23;;
77350;SDS011;66420;50.246;14.320;2023-03-04T05:34:48;90.45;;;24.50;;
77350;SDS011;66420;50.246;14.320;2023-03-04T05:37:32;68.45;;;19.08;;
77350;SDS011;66420;50.246;14.320;2023-03-04T05:40:17;52.65;;;17.52;;
77350;SDS011;66420;50.246;14.320;2023-03-04T05:43:02;60.55;;;17.52;;
77350;SDS011;66420;50.246;14.320;2023-03-04T05:45:47;55.90;;;17.23;;
77350;SDS011;66420;50.246;14.320;2023-03-04T05:48:32;56.08;;;17.98;;
77350;SDS011;66420;50.246;14.320;2023-03-04T05:51:17;63.45;;;19.88;;
77350;SDS011;66420;50.246;14.320;2023-03-04T05:54:02;83.07;;;22.27;;
77350;SDS011;66420;50.246;14.320;2023-03-04T05:56:47;67.05;;;20.70;;
77350;SDS011;66420;50.246;14.320;2023-03-04T05:59:31;72.38;;;19.30;;
77350;SDS011;66420;50.246;14.320;2023-03-04T06:02:16;81.10;;;23.92;;
77350;SDS011;66420;50.246;14.320;2023-03-04T06:05:00;113.72;;;29.70;;
77350;SDS011;66420;50.246;14.320;2023-03-04T06:07:45;103.97;;;27.63;;
77350;SDS011;66420;50.246;14.320;2023-03-04T06:10:30;99.43;;;26.58;;
77350;SDS011;66420;50.246;14.320;2023-03-04T06:13:14;101.43;;;27.48;;
77350;SDS011;66420;50.246;14.320;2023-03-04T06:15:59;94.88;;;23.63;;
77350;SDS011;66420;50.246;14.320;2023-03-04T06:18:44;81.22;;;22.40;;
77350;SDS011;66420;50.246;14.320;2023-03-04T06:21:29;44.03;;;13.68;;
77350;SDS011;66420;50.246;14.320;2023-03-04T06:24:13;40.03;;;13.23;;
77350;SDS011;66420;50.246;14.320;2023-03-04T06:26:58;25.58;;;9.55;;
77350;SDS011;66420;50.246;14.320;2023-03-04T06:29:43;28.90;;;10.98;;
77350;SDS011;66420;50.246;14.320;2023-03-04T06:32:28;25.20;;;9.52;;
77350;SDS011;66420;50.246;14.320;2023-03-04T06:35:13;29.52;;;9.50;;
77350;SDS011;66420;50.246;14.320;2023-03-04T06:37:58;22.88;;;9.18;;
77350;SDS011;66420;50.246;14.320;2023-03-04T06:40:43;26.60;;;8.70;;
77350;SDS011;66420;50.246;14.320;2023-03-04T06:43:28;23.38;;;7.82;;
77350;SDS011;66420;50.246;14.320;2023-03-04T06:46:13;25.65;;;8.10;;
77350;SDS011;66420;50.246;14.320;2023-03-04T06:48:57;26.65;;;8.98;;
77350;SDS011;66420;50.246;14.320;2023-03-04T06:51:42;24.20;;;8.27;;
77350;SDS011;66420;50.246;14.320;2023-03-04T06:54:26;21.98;;;8.77;;
77350;SDS011;66420;50.246;14.320;2023-03-04T06:57:11;19.70;;;8.23;;
77350;SDS011;66420;50.246;14.320;2023-03-04T06:59:56;20.08;;;8.13;;
77350;SDS011;66420;50.246;14.320;2023-03-04T07:02:44;20.58;;;8.23;;
77350;SDS011;66420;50.246;14.320;2023-03-04T07:05:29;18.58;;;8.55;;
77350;SDS011;66420;50.246;14.320;2023-03-04T07:08:13;22.35;;;9.18;;
77350;SDS011;66420;50.246;14.320;2023-03-04T07:10:58;16.60;;;7.30;;
77350;SDS011;66420;50.246;14.320;2023-03-04T07:13:42;18.50;;;8.85;;
77350;SDS011;66420;50.246;14.320;2023-03-04T07:16:27;22.95;;;8.75;;
77350;SDS011;66420;50.246;14.320;2023-03-04T07:19:12;18.95;;;8.35;;
77350;SDS011;66420;50.246;14.320;2023-03-04T07:21:57;17.45;;;7.82;;
77350;SDS011;66420;50.246;14.320;2023-03-04T07:24:42;23.30;;;8.55;;
77350;SDS011;66420;50.246;14.320;2023-03-04T07:27:27;21.27;;;8.07;;
77350;SDS011;66420;50.246;14.320;2023-03-04T07:30:12;21.67;;;9.68;;
77350;SDS011;66420;50.246;14.320;2023-03-04T07:32:57;23.38;;;9.55;;
77350;SDS011;66420;50.246;14.320;2023-03-04T07:35:41;23.55;;;8.75;;
77350;SDS011;66420;50.246;14.320;2023-03-04T07:38:27;18.83;;;8.40;;
77350;SDS011;66420;50.246;14.320;2023-03-04T07:41:12;22.27;;;8.25;;
77350;SDS011;66420;50.246;14.320;2023-03-04T07:43:56;19.02;;;9.27;;
77350;SDS011;66420;50.246;14.320;2023-03-04T07:46:41;21.05;;;8.90;;
77350;SDS011;66420;50.246;14.320;2023-03-04T07:49:26;19.45;;;7.35;;
77350;SDS011;66420;50.246;14.320;2023-03-04T07:52:10;16.10;;;6.70;;
77350;SDS011;66420;50.246;14.320;2023-03-04T07:54:57;16.33;;;6.95;;
77350;SDS011;66420;50.246;14.320;2023-03-04T07:57:42;17.58;;;7.63;;
77350;SDS011;66420;50.246;14.320;2023-03-04T08:00:28;18.90;;;7.40;;
77350;SDS011;66420;50.246;14.320;2023-03-04T08:03:12;19.83;;;7.38;;
77350;SDS011;66420;50.246;14.320;2023-03-04T08:05:57;16.30;;;7.93;;
77350;SDS011;66420;50.246;14.320;2023-03-04T08:08:41;17.17;;;7.30;;
77350;SDS011;66420;50.246;14.320;2023-03-04T08:11:26;19.77;;;7.47;;
77350;SDS011;66420;50.246;14.320;2023-03-04T08:14:12;21.65;;;8.13;;
77350;SDS011;66420;50.246;14.320;2023-03-04T08:16:57;17.67;;;7.60;;
77350;SDS011;66420;50.246;14.320;2023-03-04T08:19:42;19.25;;;8.43;;
77350;SDS011;66420;50.246;14.320;2023-03-04T08:22:27;20.55;;;8.73;;
77350;SDS011;66420;50.246;14.320;2023-03-04T08:25:11;20.60;;;8.07;;
77350;SDS011;66420;50.246;14.320;2023-03-04T08:27:56;23.15;;;9.60;;
77350;SDS011;66420;50.246;14.320;2023-03-04T08:30:42;17.60;;;8.25;;
77350;SDS011;66420;50.246;14.320;2023-03-04T08:33:27;22.65;;;8.85;;
77350;SDS011;66420;50.246;14.320;2023-03-04T08:36:13;21.40;;;8.98;;
77350;SDS011;66420;50.246;14.320;2023-03-04T08:38:58;19.30;;;8.77;;
77350;SDS011;66420;50.246;14.320;2023-03-04T08:41:42;23.35;;;9.13;;
77350;SDS011;66420;50.246;14.320;2023-03-04T08:44:27;20.45;;;8.98;;
77350;SDS011;66420;50.246;14.320;2023-03-04T08:47:12;24.30;;;8.52;;
77350;SDS011;66420;50.246;14.320;2023-03-04T08:49:57;19.30;;;8.20;;
77350;SDS011;66420;50.246;14.320;2023-03-04T08:52:41;19.10;;;8.68;;
77350;SDS011;66420;50.246;14.320;2023-03-04T08:55:26;21.90;;;9.02;;
77350;SDS011;66420;50.246;14.320;2023-03-04T08:58:11;19.88;;;8.90;;
77350;SDS011;66420;50.246;14.320;2023-03-04T09:00:57;18.13;;;8.73;;
77350;SDS011;66420;50.246;14.320;2023-03-04T09:03:43;21.15;;;8.80;;
77350;SDS011;66420;50.246;14.320;2023-03-04T09:06:28;18.20;;;9.10;;
77350;SDS011;66420;50.246;14.320;2023-03-04T09:09:13;17.75;;;8.75;;
77350;SDS011;66420;50.246;14.320;2023-03-04T09:11:57;22.30;;;9.45;;
77350;SDS011;66420;50.246;14.320;2023-03-04T09:14:42;20.85;;;9.60;;
77350;SDS011;66420;50.246;14.320;2023-03-04T09:17:26;28.40;;;12.40;;
77350;SDS011;66420;50.246;14.320;2023-03-04T09:20:11;22.17;;;9.43;;
77350;SDS011;66420;50.246;14.320;2023-03-04T09:22:56;19.15;;;8.80;;
77350;SDS011;66420;50.246;14.320;2023-03-04T09:25:41;18.88;;;8.88;;
77350;SDS011;66420;50.246;14.320;2023-03-04T09:28:26;17.52;;;8.88;;
77350;SDS011;66420;50.246;14.320;2023-03-04T09:31:11;19.38;;;8.77;;
77350;SDS011;66420;50.246;14.320;2023-03-04T09:33:58;19.38;;;8.60;;
77350;SDS011;66420;50.246;14.320;2023-03-04T09:36:43;19.35;;;8.90;;
77350;SDS011;66420;50.246;14.320;2023-03-04T09:39:28;16.98;;;7.70;;
77350;SDS011;66420;50.246;14.320;2023-03-04T09:42:14;17.90;;;8.50;;
77350;SDS011;66420;50.246;14.320;2023-03-04T09:45:10;21.08;;;8.43;;
77350;SDS011;66420;50.246;14.320;2023-03-04T09:48:00;18.75;;;8.02;;
77350;SDS011;66420;50.246;14.320;2023-03-04T09:56:54;20.50;;;8.77;;
77350;SDS011;66420;50.246;14.320;2023-03-04T10:06:05;18.80;;;7.88;;
77350;SDS011;66420;50.246;14.320;2023-03-04T10:08:54;19.77;;;8.30;;
77350;SDS011;66420;50.246;14.320;2023-03-04T10:11:46;21.92;;;9.98;;
77350;SDS011;66420;50.246;14.320;2023-03-04T10:14:47;20.25;;;9.30;;
77350;SDS011;66420;50.246;14.320;2023-03-04T10:17:36;19.33;;;8.85;;
77350;SDS011;66420;50.246;14.320;2023-03-04T10:20:38;19.70;;;8.07;;
77350;SDS011;66420;50.246;14.320;2023-03-04T10:23:33;17.63;;;7.47;;
77350;SDS011;66420;50.246;14.320;2023-03-04T10:26:18;18.90;;;8.85;;
77350;SDS011;66420;50.246;14.320;2023-03-04T10:29:04;15.70;;;7.28;;
77350;SDS011;66420;50.246;14.320;2023-03-04T10:31:50;19.25;;;7.95;;
77350;SDS011;66420;50.246;14.320;2023-03-04T10:34:35;15.02;;;7.68;;
77350;SDS011;66420;50.246;14.320;2023-03-04T10:37:20;16.83;;;7.35;;
77350;SDS011;66420;50.246;14.320;2023-03-04T10:40:11;17.88;;;7.60;;
77350;SDS011;66420;50.246;14.320;2023-03-04T10:43:13;18.17;;;8.30;;
77350;SDS011;66420;50.246;14.320;2023-03-04T10:46:03;14.20;;;6.50;;
77350;SDS011;66420;50.246;14.320;2023-03-04T10:48:51;13.82;;;6.90;;
77350;SDS011;66420;50.246;14.320;2023-03-04T10:55:03;14.45;;;6.78;;
77350;SDS011;66420;50.246;14.320;2023-03-04T10:58:06;14.73;;;6.63;;
77350;SDS011;66420;50.246;14.320;2023-03-04T11:00:58;13.85;;;6.00;;
77350;SDS011;66420;50.246;14.320;2023-03-04T11:03:48;12.88;;;7.47;;
77350;SDS011;66420;50.246;14.320;2023-03-04T11:06:36;12.90;;;7.32;;
77350;SDS011;66420;50.246;14.320;2023-03-04T11:09:28;14.85;;;6.15;;
77350;SDS011;66420;50.246;14.320;2023-03-04T11:12:14;10.73;;;5.70;;
77350;SDS011;66420;50.246;14.320;2023-03-04T11:18:44;11.43;;;4.97;;
77350;SDS011;66420;50.246;14.320;2023-03-04T11:21:54;13.63;;;6.28;;
77350;SDS011;66420;50.246;14.320;2023-03-04T11:24:43;10.45;;;5.72;;
77350;SDS011;66420;50.246;14.320;2023-03-04T11:30:41;10.57;;;5.88;;
77350;SDS011;66420;50.246;14.320;2023-03-04T11:39:38;10.43;;;5.57;;
77350;SDS011;66420;50.246;14.320;2023-03-04T11:42:30;12.10;;;5.07;;
77350;SDS011;66420;50.246;14.320;2023-03-04T11:45:24;12.15;;;5.20;;
77350;SDS011;66420;50.246;14.320;2023-03-04T11:51:20;7.53;;;3.95;;
77350;SDS011;66420;50.246;14.320;2023-03-04T12:07:30;7.43;;;3.15;;
77350;SDS011;66420;50.246;14.320;2023-03-04T12:13:54;7.53;;;3.45;;
77350;SDS011;66420;50.246;14.320;2023-03-04T12:48:11;4.28;;;2.10;;
77350;SDS011;66420;50.246;14.320;2023-03-04T12:54:16;7.05;;;2.75;;
77350;SDS011;66420;50.246;14.320;2023-03-04T12:57:18;3.92;;;2.65;;
77350;SDS011;66420;50.246;14.320;2023-03-04T13:06:25;8.27;;;2.35;;
77350;SDS011;66420;50.246;14.320;2023-03-04T13:09:23;7.10;;;1.70;;
77350;SDS011;66420;50.246;14.320;2023-03-04T13:12:17;4.85;;;2.20;;
77350;SDS011;66420;50.246;14.320;2023-03-04T13:17:58;4.20;;;1.95;;
77350;SDS011;66420;50.246;14.320;2023-03-04T13:20:43;4.60;;;2.00;;
77350;SDS011;66420;50.246;14.320;2023-03-04T13:23:28;4.75;;;1.80;;
77350;SDS011;66420;50.246;14.320;2023-03-04T13:32:08;5.20;;;1.42;;
77350;SDS011;66420;50.246;14.320;2023-03-04T13:34:54;4.85;;;1.88;;
77350;SDS011;66420;50.246;14.320;2023-03-04T13:37:38;4.32;;;1.88;;
77350;SDS011;66420;50.246;14.320;2023-03-04T13:40:40;8.10;;;3.38;;
77350;SDS011;66420;50.246;14.320;2023-03-04T13:43:36;5.75;;;2.40;;
77350;SDS011;66420;50.246;14.320;2023-03-04T13:46:38;5.68;;;2.13;;
77350;SDS011;66420;50.246;14.320;2023-03-04T13:49:25;5.60;;;1.70;;
77350;SDS011;66420;50.246;14.320;2023-03-04T13:55:34;4.65;;;2.13;;
77350;SDS011;66420;50.246;14.320;2023-03-04T13:58:25;9.95;;;4.32;;
77350;SDS011;66420;50.246;14.320;2023-03-04T14:04:22;5.90;;;2.30;;
77350;SDS011;66420;50.246;14.320;2023-03-04T14:12:56;6.93;;;1.63;;
77350;SDS011;66420;50.246;14.320;2023-03-04T14:15:54;5.63;;;2.03;;
77350;SDS011;66420;50.246;14.320;2023-03-04T14:18:40;7.50;;;2.95;;
77350;SDS011;66420;50.246;14.320;2023-03-04T14:21:25;5.72;;;2.30;;
77350;SDS011;66420;50.246;14.320;2023-03-04T14:24:12;5.78;;;2.38;;
77350;SDS011;66420;50.246;14.320;2023-03-04T14:27:11;5.03;;;2.15;;
77350;SDS011;66420;50.246;14.320;2023-03-04T14:29:58;5.05;;;1.80;;
77350;SDS011;66420;50.246;14.320;2023-03-04T14:32:44;4.30;;;1.60;;
77350;SDS011;66420;50.246;14.320;2023-03-04T14:35:30;4.20;;;1.90;;
77350;SDS011;66420;50.246;14.320;2023-03-04T14:38:34;4.05;;;1.60;;
77350;SDS011;66420;50.246;14.320;2023-03-04T14:41:28;4.25;;;1.70;;
77350;SDS011;66420;50.246;14.320;2023-03-04T14:44:37;3.15;;;1.73;;
77350;SDS011;66420;50.246;14.320;2023-03-04T14:47:32;5.82;;;1.60;;
77350;SDS011;66420;50.246;14.320;2023-03-04T14:53:04;3.45;;;1.52;;
77350;SDS011;66420;50.246;14.320;2023-03-04T14:58:54;6.15;;;2.05;;
77350;SDS011;66420;50.246;14.320;2023-03-04T15:01:41;5.20;;;2.10;;
77350;SDS011;66420;50.246;14.320;2023-03-04T15:04:25;6.10;;;2.00;;
77350;SDS011;66420;50.246;14.320;2023-03-04T15:07:14;6.10;;;2.00;;
77350;SDS011;66420;50.246;14.320;2023-03-04T15:10:04;4.60;;;1.73;;
77350;SDS011;66420;50.246;14.320;2023-03-04T15:12:52;5.80;;;2.20;;
77350;SDS011;66420;50.246;14.320;2023-03-04T15:18:27;9.20;;;1.92;;
77350;SDS011;66420;50.246;14.320;2023-03-04T15:24:04;5.88;;;1.77;;
77350;SDS011;66420;50.246;14.320;2023-03-04T15:26:50;5.20;;;1.98;;
77350;SDS011;66420;50.246;14.320;2023-03-04T15:29:35;4.75;;;2.38;;
77350;SDS011;66420;50.246;14.320;2023-03-04T15:32:25;6.07;;;1.95;;
77350;SDS011;66420;50.246;14.320;2023-03-04T15:35:13;4.15;;;1.90;;
77350;SDS011;66420;50.246;14.320;2023-03-04T15:38:00;4.38;;;1.70;;
77350;SDS011;66420;50.246;14.320;2023-03-04T15:40:46;7.13;;;2.20;;
77350;SDS011;66420;50.246;14.320;2023-03-04T15:43:31;4.78;;;1.88;;
77350;SDS011;66420;50.246;14.320;2023-03-04T15:46:15;4.55;;;1.80;;
77350;SDS011;66420;50.246;14.320;2023-03-04T15:49:00;4.35;;;1.60;;
77350;SDS011;66420;50.246;14.320;2023-03-04T15:51:45;5.70;;;1.92;;
77350;SDS011;66420;50.246;14.320;2023-03-04T15:54:29;4.53;;;1.67;;
77350;SDS011;66420;50.246;14.320;2023-03-04T15:57:22;4.95;;;1.90;;
77350;SDS011;66420;50.246;14.320;2023-03-04T16:00:10;6.53;;;1.75;;
77350;SDS011;66420;50.246;14.320;2023-03-04T16:02:55;4.38;;;1.92;;
77350;SDS011;66420;50.246;14.320;2023-03-04T16:05:40;5.15;;;1.80;;
77350;SDS011;66420;50.246;14.320;2023-03-04T16:08:26;6.10;;;1.75;;
77350;SDS011;66420;50.246;14.320;2023-03-04T16:11:15;3.80;;;1.65;;
77350;SDS011;66420;50.246;14.320;2023-03-04T16:14:01;4.45;;;1.38;;
77350;SDS011;66420;50.246;14.320;2023-03-04T16:16:46;3.90;;;1.50;;
77350;SDS011;66420;50.246;14.320;2023-03-04T16:19:33;6.03;;;2.05;;
77350;SDS011;66420;50.246;14.320;2023-03-04T16:22:20;5.93;;;1.63;;
77350;SDS011;66420;50.246;14.320;2023-03-04T16:25:09;3.70;;;1.50;;
77350;SDS011;66420;50.246;14.320;2023-03-04T16:27:58;5.35;;;2.17;;
77350;SDS011;66420;50.246;14.320;2023-03-04T16:30:45;9.57;;;2.65;;
77350;SDS011;66420;50.246;14.320;2023-03-04T16:33:30;8.95;;;3.25;;
77350;SDS011;66420;50.246;14.320;2023-03-04T16:36:17;4.93;;;2.10;;
77350;SDS011;66420;50.246;14.320;2023-03-04T16:39:22;6.10;;;1.85;;
77350;SDS011;66420;50.246;14.320;2023-03-04T16:42:15;5.60;;;1.80;;
77350;SDS011;66420;50.246;14.320;2023-03-04T16:45:02;6.28;;;1.80;;
77350;SDS011;66420;50.246;14.320;2023-03-04T16:47:47;4.55;;;2.25;;
77350;SDS011;66420;50.246;14.320;2023-03-04T16:50:32;7.50;;;2.40;;
77350;SDS011;66420;50.246;14.320;2023-03-04T16:53:41;6.43;;;2.03;;
77350;SDS011;66420;50.246;14.320;2023-03-04T16:56:26;10.50;;;2.70;;
77350;SDS011;66420;50.246;14.320;2023-03-04T16:59:13;5.32;;;2.13;;
77350;SDS011;66420;50.246;14.320;2023-03-04T17:01:59;5.40;;;2.30;;
77350;SDS011;66420;50.246;14.320;2023-03-04T17:04:44;6.25;;;2.60;;
77350;SDS011;66420;50.246;14.320;2023-03-04T17:07:30;5.03;;;2.30;;
77350;SDS011;66420;50.246;14.320;2023-03-04T17:10:15;7.95;;;2.30;;
77350;SDS011;66420;50.246;14.320;2023-03-04T17:13:00;4.55;;;2.03;;
77350;SDS011;66420;50.246;14.320;2023-03-04T17:15:44;4.97;;;2.38;;
77350;SDS011;66420;50.246;14.320;2023-03-04T17:18:30;5.28;;;2.47;;
77350;SDS011;66420;50.246;14.320;2023-03-04T17:21:16;5.70;;;2.28;;
77350;SDS011;66420;50.246;14.320;2023-03-04T17:24:02;5.65;;;2.80;;
77350;SDS011;66420;50.246;14.320;2023-03-04T17:26:48;8.35;;;2.30;;
77350;SDS011;66420;50.246;14.320;2023-03-04T17:29:33;6.20;;;2.10;;
77350;SDS011;66420;50.246;14.320;2023-03-04T17:32:20;5.10;;;2.65;;
77350;SDS011;66420;50.246;14.320;2023-03-04T17:35:06;6.63;;;2.20;;
77350;SDS011;66420;50.246;14.320;2023-03-04T17:37:51;5.45;;;2.13;;
77350;SDS011;66420;50.246;14.320;2023-03-04T17:40:39;7.55;;;2.47;;
77350;SDS011;66420;50.246;14.320;2023-03-04T17:43:24;7.60;;;2.08;;
77350;SDS011;66420;50.246;14.320;2023-03-04T17:46:09;7.55;;;2.13;;
77350;SDS011;66420;50.246;14.320;2023-03-04T17:48:56;6.65;;;2.50;;
77350;SDS011;66420;50.246;14.320;2023-03-04T17:51:45;5.63;;;2.30;;
77350;SDS011;66420;50.246;14.320;2023-03-04T17:54:31;6.80;;;2.70;;
77350;SDS011;66420;50.246;14.320;2023-03-04T17:57:16;9.02;;;2.70;;
77350;SDS011;66420;50.246;14.320;2023-03-04T18:00:00;7.88;;;2.85;;
77350;SDS011;66420;50.246;14.320;2023-03-04T18:02:46;4.78;;;2.45;;
77350;SDS011;66420;50.246;14.320;2023-03-04T18:05:31;7.78;;;2.33;;
77350;SDS011;66420;50.246;14.320;2023-03-04T18:08:16;7.38;;;2.35;;
77350;SDS011;66420;50.246;14.320;2023-03-04T18:11:01;4.00;;;1.88;;
77350;SDS011;66420;50.246;14.320;2023-03-04T18:13:46;4.95;;;1.90;;
77350;SDS011;66420;50.246;14.320;2023-03-04T18:16:31;8.90;;;2.63;;
77350;SDS011;66420;50.246;14.320;2023-03-04T18:19:16;7.47;;;2.60;;
77350;SDS011;66420;50.246;14.320;2023-03-04T18:22:01;4.20;;;1.92;;
77350;SDS011;66420;50.246;14.320;2023-03-04T18:24:45;4.05;;;1.63;;